Time;durP1;ratioP1;P1;durP2;ratioP2;P2;SDS_P1;SDS_P2;PMS_P1;PMS_P2;Temp;Humidity;BMP_temperature;BMP_pressure;BME280_temperature;BME280_humidity;BME280_pressure;Samples;Min_cycle;Max_cycle;Signal;HPM_P1;HPM_P2
2024/03/04 00:00:38;;;;;;;12.80;6.38;;;11.50;75.10;;;;;;5030959;28;20037;-69
2024/03/04 00:03:04;;;;;;;10.18;5.93;;;11.40;75.60;;;;;;5035150;28;20025;-63
2024/03/04 00:05:34;;;;;;;9.38;4.97;;;11.30;75.90;;;;;;5034657;28;20025;-62
2024/03/04 00:08:01;;;;;;;12.18;5.80;;;11.20;76.50;;;;;;5039072;28;20033;-63
2024/03/04 00:10:31;;;;;;;16.33;7.20;;;11.20;76.70;;;;;;5031390;28;20112;-69
2024/03/04 00:12:57;;;;;;;15.98;7.50;;;11.30;76.80;;;;;;5030062;28;20042;-69
2024/03/04 00:15:24;;;;;;;15.82;8.25;;;11.40;77.00;;;;;;5031594;28;20036;-69
2024/03/04 00:17:51;;;;;;;13.05;6.65;;;11.40;77.10;;;;;;5029830;28;20503;-69
2024/03/04 00:20:18;;;;;;;15.77;7.50;;;11.40;77.20;;;;;;5030183;28;20025;-69
2024/03/04 00:22:45;;;;;;;16.77;9.20;;;11.40;77.50;;;;;;5035566;28;20120;-62
2024/03/04 00:25:18;;;;;;;16.80;6.40;;;11.40;77.40;;;;;;5030347;28;20488;-62
2024/03/04 00:27:45;;;;;;;19.55;8.32;;;11.50;77.50;;;;;;5033994;28;20029;-63
2024/03/04 00:30:12;;;;;;;15.20;7.35;;;11.40;77.60;;;;;;5026473;28;20025;-62
2024/03/04 00:32:38;;;;;;;22.05;9.10;;;11.40;78.00;;;;;;5029503;28;20048;-63
2024/03/04 00:35:10;;;;;;;17.92;9.45;;;11.40;77.90;;;;;;5030191;28;20034;-63
2024/03/04 00:37:36;;;;;;;17.67;8.57;;;11.50;78.10;;;;;;5029198;28;20076;-62
2024/03/04 00:40:06;;;;;;;16.40;7.30;;;11.40;78.30;;;;;;5032057;28;20511;-62
2024/03/04 00:42:33;;;;;;;16.58;7.13;;;11.40;78.20;;;;;;5032752;28;20074;-62
2024/03/04 00:44:59;;;;;;;18.88;7.95;;;11.40;78.40;;;;;;5030038;28;20037;-63
2024/03/04 00:47:26;;;;;;;20.50;9.85;;;11.40;78.60;;;;;;5035343;28;20086;-63
2024/03/04 00:49:52;;;;;;;19.98;8.75;;;11.30;78.80;;;;;;5030055;28;20029;-63
2024/03/04 00:52:18;;;;;;;18.65;7.28;;;11.30;78.90;;;;;;5033859;28;20528;-69
2024/03/04 00:54:45;;;;;;;17.13;7.85;;;11.30;78.70;;;;;;5033526;28;20404;-69
2024/03/04 00:57:11;;;;;;;18.90;8.07;;;11.40;78.80;;;;;;5029630;28;20036;-69
2024/03/04 00:59:38;;;;;;;19.48;10.02;;;11.30;79.00;;;;;;5030134;28;20574;-69
2024/03/04 01:02:08;;;;;;;18.20;9.48;;;11.30;79.00;;;;;;5031416;28;20504;-69
2024/03/04 01:04:34;;;;;;;16.67;8.48;;;11.30;79.30;;;;;;5028818;28;20034;-69
2024/03/04 01:07:00;;;;;;;21.73;8.10;;;11.30;79.20;;;;;;5031141;28;20017;-69
2024/03/04 01:09:26;;;;;;;15.98;6.95;;;11.30;78.90;;;;;;5030351;28;20029;-69
2024/03/04 01:11:55;;;;;;;30.52;8.38;;;11.40;78.80;;;;;;5028135;28;20116;-69
2024/03/04 01:14:21;;;;;;;17.90;9.07;;;11.40;78.70;;;;;;5027734;28;20039;-69
2024/03/04 01:16:49;;;;;;;16.58;7.57;;;11.40;78.60;;;;;;5031786;28;20747;-69
2024/03/04 01:19:20;;;;;;;17.08;7.72;;;11.40;78.60;;;;;;5029535;28;20025;-69
2024/03/04 01:21:47;;;;;;;12.85;6.78;;;11.40;78.60;;;;;;5031383;28;20030;-69
2024/03/04 01:24:15;;;;;;;16.58;7.80;;;11.40;78.80;;;;;;5031454;28;20025;-69
2024/03/04 01:26:41;;;;;;;15.82;7.13;;;11.30;79.10;;;;;;5028703;28;20569;-69
2024/03/04 01:29:10;;;;;;;15.15;6.65;;;11.20;79.20;;;;;;5025413;28;20044;-69
2024/03/04 01:31:37;;;;;;;17.02;7.57;;;11.30;79.20;;;;;;5028638;28;20128;-69
2024/03/04 01:34:04;;;;;;;11.32;6.07;;;11.30;79.00;;;;;;5031300;28;20038;-69
2024/03/04 01:36:30;;;;;;;19.00;7.32;;;11.30;79.00;;;;;;5028511;28;20021;-69
2024/03/04 01:38:57;;;;;;;13.60;7.05;;;11.30;79.10;;;;;;5027900;28;20108;-69
2024/03/04 01:41:23;;;;;;;17.58;7.70;;;11.30;79.10;;;;;;5027488;28;20025;-69
2024/03/04 01:43:50;;;;;;;15.48;6.50;;;11.30;79.10;;;;;;5033712;28;20530;-69
2024/03/04 01:46:17;;;;;;;15.00;8.07;;;11.30;79.00;;;;;;5026811;28;20055;-69
2024/03/04 01:48:43;;;;;;;17.45;7.15;;;11.30;79.00;;;;;;5033890;28;20835;-69
2024/03/04 01:51:10;;;;;;;12.63;5.97;;;11.40;78.90;;;;;;5029773;28;20087;-69
2024/03/04 01:53:38;;;;;;;14.93;6.40;;;11.40;78.80;;;;;;5023075;28;20053;-69
2024/03/04 01:56:05;;;;;;;13.18;6.38;;;11.30;79.00;;;;;;5029915;28;20357;-69
2024/03/04 01:58:32;;;;;;;12.13;6.07;;;11.30;79.30;;;;;;5031549;28;20088;-69
2024/03/04 02:01:03;;;;;;;17.35;7.70;;;11.20;79.40;;;;;;5028857;28;20114;-69
2024/03/04 02:03:30;;;;;;;16.38;8.00;;;11.20;79.50;;;;;;5029701;28;20029;-69
2024/03/04 02:05:59;;;;;;;16.90;8.68;;;11.20;79.60;;;;;;5036824;28;20099;-69
2024/03/04 02:08:25;;;;;;;18.73;8.98;;;11.20;79.60;;;;;;5033116;28;20120;-69
2024/03/04 02:10:54;;;;;;;21.10;10.13;;;11.20;79.50;;;;;;5027267;28;20378;-69
2024/03/04 02:13:22;;;;;;;27.42;11.65;;;11.20;79.80;;;;;;5035397;28;20043;-69
2024/03/04 02:15:50;;;;;;;18.13;9.30;;;11.10;80.00;;;;;;5037831;28;20034;-69
2024/03/04 02:18:19;;;;;;;23.80;9.40;;;11.10;80.10;;;;;;5036673;28;20079;-69
2024/03/04 02:20:47;;;;;;;20.45;9.70;;;11.00;80.60;;;;;;5033157;28;20366;-69
2024/03/04 02:23:14;;;;;;;24.52;10.95;;;11.00;80.90;;;;;;5034610;28;20022;-69
2024/03/04 02:25:52;;;;;;;22.73;10.68;;;11.00;81.00;;;;;;5031883;28;20442;-69
2024/03/04 02:28:20;;;;;;;23.20;10.07;;;11.00;81.20;;;;;;5029965;28;20033;-69
2024/03/04 02:30:46;;;;;;;17.58;9.52;;;11.00;81.20;;;;;;5037641;28;20086;-69
2024/03/04 02:33:13;;;;;;;20.27;9.45;;;11.00;81.10;;;;;;5033155;28;20415;-69
2024/03/04 02:35:40;;;;;;;20.50;8.75;;;11.00;81.00;;;;;;5031331;28;20037;-69
2024/03/04 02:38:07;;;;;;;15.48;8.05;;;11.00;80.80;;;;;;5040927;28;20028;-69
2024/03/04 02:40:33;;;;;;;21.40;8.35;;;11.10;80.80;;;;;;5033946;28;20021;-69
2024/03/04 02:42:59;;;;;;;16.70;8.13;;;11.10;80.70;;;;;;5034111;28;20028;-69
2024/03/04 02:45:25;;;;;;;15.55;7.80;;;11.10;80.70;;;;;;5024256;28;20470;-69
2024/03/04 02:47:51;;;;;;;18.45;6.93;;;11.10;80.50;;;;;;5030221;28;20396;-69
2024/03/04 02:50:17;;;;;;;12.40;6.35;;;11.10;81.10;;;;;;5033079;28;20033;-69
2024/03/04 02:52:44;;;;;;;12.40;5.97;;;11.10;80.50;;;;;;5028724;28;20456;-69
2024/03/04 02:55:10;;;;;;;8.27;4.78;;;11.00;80.50;;;;;;5032749;28;20103;-63
2024/03/04 02:57:36;;;;;;;10.25;4.55;;;11.00;80.60;;;;;;5030629;28;20029;-69
2024/03/04 03:00:02;;;;;;;7.65;4.30;;;11.00;80.80;;;;;;5036936;28;20481;-69
2024/03/04 03:02:28;;;;;;;8.93;4.97;;;11.00;80.80;;;;;;5037127;28;20079;-69
2024/03/04 03:04:54;;;;;;;9.30;4.95;;;11.00;80.60;;;;;;5038216;28;20037;-69
2024/03/04 03:07:20;;;;;;;10.73;4.82;;;11.10;80.40;;;;;;5031854;28;20037;-69
2024/03/04 03:09:46;;;;;;;10.90;4.43;;;11.10;80.40;;;;;;5034473;28;20091;-69
2024/03/04 03:12:12;;;;;;;8.73;4.90;;;11.10;80.40;;;;;;5031840;28;20099;-69
2024/03/04 03:14:38;;;;;;;10.57;5.25;;;11.10;80.60;;;;;;5034632;28;20492;-69
2024/03/04 03:17:04;;;;;;;14.68;5.30;;;11.10;80.60;;;;;;5030729;28;20022;-69
2024/03/04 03:19:30;;;;;;;9.00;3.60;;;11.10;80.60;;;;;;5035530;28;20035;-69
2024/03/04 03:21:56;;;;;;;6.88;3.00;;;11.10;80.50;;;;;;5033889;28;20049;-69
2024/03/04 03:24:25;;;;;;;11.48;4.25;;;11.10;80.40;;;;;;5035477;28;20059;-69
2024/03/04 03:26:51;;;;;;;9.45;3.80;;;11.20;80.30;;;;;;5039690;28;20045;-69
2024/03/04 03:29:17;;;;;;;5.93;2.92;;;11.20;80.20;;;;;;5032415;28;20044;-69
2024/03/04 03:31:44;;;;;;;8.75;3.60;;;11.20;80.10;;;;;;5037234;28;20033;-69
2024/03/04 03:34:10;;;;;;;8.32;3.47;;;11.20;80.00;;;;;;5035331;28;20120;-69
2024/03/04 03:36:41;;;;;;;9.27;4.78;;;11.20;80.00;;;;;;5031093;28;20031;-69
2024/03/04 03:39:10;;;;;;;5.45;3.33;;;11.20;80.00;;;;;;5029879;28;20040;-69
2024/03/04 03:41:39;;;;;;;9.15;3.70;;;11.20;80.00;;;;;;5032326;28;20489;-69
2024/03/04 03:44:06;;;;;;;10.10;3.10;;;11.10;79.90;;;;;;5034283;28;20021;-69
2024/03/04 03:46:32;;;;;;;8.05;3.47;;;11.10;80.00;;;;;;5036492;28;20468;-69
2024/03/04 03:48:58;;;;;;;6.68;3.05;;;11.10;80.10;;;;;;5031387;28;20528;-69
2024/03/04 03:51:24;;;;;;;5.57;2.13;;;11.00;80.20;;;;;;5029721;28;20040;-69
2024/03/04 03:53:50;;;;;;;5.20;2.63;;;10.90;80.30;;;;;;5035881;28;20415;-69
2024/03/04 03:56:17;;;;;;;6.45;2.92;;;10.90;80.50;;;;;;5033934;28;20033;-69
2024/03/04 03:58:43;;;;;;;6.60;2.40;;;10.80;80.50;;;;;;5035844;28;20033;-69
2024/03/04 04:01:10;;;;;;;5.22;1.83;;;10.80;80.50;;;;;;5031027;28;20541;-69
2024/03/04 04:03:36;;;;;;;4.60;1.77;;;10.80;80.40;;;;;;5030746;28;20029;-69
2024/03/04 04:06:02;;;;;;;5.45;2.80;;;10.90;80.40;;;;;;5032550;28;20044;-69
2024/03/04 04:08:28;;;;;;;7.18;2.13;;;10.90;80.30;;;;;;5030046;28;20065;-69
2024/03/04 04:10:54;;;;;;;5.90;2.47;;;10.90;80.30;;;;;;5037269;28;20064;-69
2024/03/04 04:13:23;;;;;;;3.10;1.80;;;10.80;80.30;;;;;;5031235;28;20465;-69
2024/03/04 04:15:49;;;;;;;4.32;1.70;;;10.80;80.30;;;;;;5029111;28;20500;-69
2024/03/04 04:18:16;;;;;;;5.50;2.08;;;10.80;80.40;;;;;;5032245;28;20461;-69
2024/03/04 04:20:42;;;;;;;4.55;1.75;;;10.80;80.30;;;;;;5033007;28;20379;-69
2024/03/04 04:23:08;;;;;;;3.53;2.03;;;10.80;80.30;;;;;;5034341;28;20029;-69
2024/03/04 04:25:35;;;;;;;4.75;2.30;;;10.80;80.20;;;;;;5034215;28;20349;-69
2024/03/04 04:28:02;;;;;;;2.72;1.70;;;10.80;80.10;;;;;;5031097;28;20036;-69
2024/03/04 04:30:28;;;;;;;6.28;2.13;;;10.80;80.10;;;;;;5029259;28;20053;-69
2024/03/04 04:32:54;;;;;;;6.68;3.10;;;10.70;80.20;;;;;;5030323;28;20060;-69
2024/03/04 04:35:20;;;;;;;6.10;2.78;;;10.70;80.30;;;;;;5028768;28;20035;-69
2024/03/04 04:37:46;;;;;;;6.13;2.60;;;10.70;80.30;;;;;;5030575;28;20029;-69
2024/03/04 04:40:19;;;;;;;7.03;2.58;;;10.70;80.30;;;;;;5030777;28;20045;-69
2024/03/04 04:42:44;;;;;;;;;;;10.80;80.20;;;;;;5033987;28;20492;-69
2024/03/04 04:45:11;;;;;;;4.82;2.03;;;10.80;80.10;;;;;;5029294;28;19913;-69
2024/03/04 04:47:36;;;;;;;2.65;1.73;;;10.70;79.90;;;;;;5035555;28;20476;-69
2024/03/04 04:50:03;;;;;;;8.88;2.10;;;10.80;79.80;;;;;;5039074;28;20026;-69
2024/03/04 04:52:30;;;;;;;3.75;2.10;;;10.80;79.80;;;;;;5037853;28;20039;-68
2024/03/04 04:54:56;;;;;;;5.57;2.95;;;10.70;79.80;;;;;;5037327;28;20388;-69
2024/03/04 04:57:22;;;;;;;3.47;2.00;;;10.70;79.90;;;;;;5027341;28;20034;-69
2024/03/04 04:59:48;;;;;;;5.40;2.35;;;10.70;80.00;;;;;;5029633;28;20029;-69
2024/03/04 05:02:14;;;;;;;5.50;1.90;;;10.70;80.00;;;;;;5038300;28;20071;-69
2024/03/04 05:04:44;;;;;;;4.45;2.22;;;10.70;79.90;;;;;;5035783;28;20026;-69
2024/03/04 05:07:10;;;;;;;6.10;2.65;;;10.70;79.90;;;;;;5037114;28;20044;-69
2024/03/04 05:09:36;;;;;;;2.65;1.50;;;10.70;79.90;;;;;;5036789;28;20021;-69
2024/03/04 05:12:02;;;;;;;3.55;2.15;;;10.70;80.00;;;;;;5040473;28;20067;-69
2024/03/04 05:14:28;;;;;;;6.05;2.17;;;10.70;80.10;;;;;;5032910;28;20187;-69
2024/03/04 05:16:55;;;;;;;4.55;2.00;;;10.60;80.10;;;;;;5065666;28;20029;-62
2024/03/04 05:19:23;;;;;;;3.00;1.65;;;10.60;80.10;;;;;;5032351;28;20537;-63
2024/03/04 05:21:50;;;;;;;4.85;2.70;;;10.60;80.10;;;;;;5035324;28;20056;-62
2024/03/04 05:24:17;;;;;;;5.50;2.38;;;10.60;80.30;;;;;;5035225;28;20021;-62
2024/03/04 05:26:43;;;;;;;7.18;2.60;;;10.60;80.30;;;;;;5027963;28;20041;-62
2024/03/04 05:29:10;;;;;;;3.65;2.08;;;10.60;80.00;;;;;;5012333;28;20655;-62
2024/03/04 05:31:50;;;;;;;4.28;1.90;;;10.60;79.90;;;;;;5031352;28;20183;-63
2024/03/04 05:34:16;;;;;;;3.70;1.77;;;10.70;79.90;;;;;;5032400;28;20033;-62
2024/03/04 05:36:43;;;;;;;3.22;1.33;;;10.70;79.70;;;;;;5055727;28;20098;-62
2024/03/04 05:39:10;;;;;;;4.50;2.13;;;10.80;79.70;;;;;;5031317;28;20029;-63
2024/03/04 05:41:40;;;;;;;4.15;2.10;;;10.70;79.50;;;;;;5029133;28;20159;-63
2024/03/04 05:44:06;;;;;;;2.80;1.45;;;10.80;79.40;;;;;;5026992;28;20041;-63
2024/03/04 05:46:32;;;;;;;3.15;1.40;;;10.80;79.30;;;;;;5028330;28;20370;-63
2024/03/04 05:48:58;;;;;;;3.00;2.05;;;10.80;79.30;;;;;;5030800;28;20069;-62
2024/03/04 05:51:24;;;;;;;2.78;1.85;;;10.80;79.40;;;;;;5029440;28;20040;-63
2024/03/04 05:53:50;;;;;;;4.35;2.30;;;10.70;79.40;;;;;;5031777;28;20053;-63
2024/03/04 05:56:16;;;;;;;3.15;1.23;;;10.70;79.30;;;;;;5027835;28;20179;-63
2024/03/04 05:58:42;;;;;;;4.40;1.33;;;10.80;79.40;;;;;;5034054;28;20033;-62
2024/03/04 06:01:08;;;;;;;5.70;2.22;;;10.80;79.30;;;;;;5027852;28;20183;-68
2024/03/04 06:03:34;;;;;;;4.38;2.45;;;10.80;79.20;;;;;;5027700;28;20497;-69
2024/03/04 06:06:00;;;;;;;1.83;1.58;;;10.90;79.10;;;;;;5029294;28;20053;-69
2024/03/04 06:08:25;;;;;;;2.83;1.35;;;10.80;79.00;;;;;;5028128;28;20363;-62
2024/03/04 06:10:51;;;;;;;3.65;1.65;;;10.80;79.20;;;;;;5030681;28;20473;-63
2024/03/04 06:13:17;;;;;;;5.00;1.85;;;10.80;79.10;;;;;;5029705;28;20026;-63
2024/03/04 06:15:42;;;;;;;2.60;1.60;;;10.70;79.20;;;;;;5060188;28;20103;-63
2024/03/04 06:18:08;;;;;;;4.60;1.75;;;10.80;79.20;;;;;;5030530;28;20073;-63
2024/03/04 06:20:34;;;;;;;1.85;1.33;;;10.80;79.20;;;;;;5030727;28;20034;-63
2024/03/04 06:22:59;;;;;;;4.85;2.15;;;10.90;79.10;;;;;;5031962;28;20124;-63
2024/03/04 06:25:25;;;;;;;5.95;1.92;;;10.90;79.00;;;;;;5028009;28;20025;-63
2024/03/04 06:27:51;;;;;;;2.83;1.50;;;10.90;78.90;;;;;;5023789;28;20465;-62
2024/03/04 06:30:17;;;;;;;4.00;1.25;;;10.90;78.90;;;;;;5031806;28;20030;-63
2024/03/04 06:32:42;;;;;;;3.92;1.40;;;10.80;78.80;;;;;;5028546;28;20112;-63
2024/03/04 06:35:08;;;;;;;9.18;1.88;;;10.90;78.90;;;;;;5026942;28;20099;-63
2024/03/04 06:37:34;;;;;;;2.75;1.52;;;10.80;78.80;;;;;;5029490;28;20049;-62
2024/03/04 06:39:59;;;;;;;3.33;1.15;;;10.80;78.80;;;;;;5028341;28;20035;-62
2024/03/04 06:42:25;;;;;;;2.10;1.20;;;10.80;79.00;;;;;;5032273;28;20021;-62
2024/03/04 06:44:51;;;;;;;1.67;1.17;;;10.80;79.10;;;;;;5026998;28;20022;-63
2024/03/04 06:47:16;;;;;;;3.22;0.80;;;10.70;79.00;;;;;;5027491;28;20405;-63
2024/03/04 06:49:42;;;;;;;2.42;2.03;;;10.80;79.00;;;;;;5033002;28;20026;-63
2024/03/04 06:52:08;;;;;;;3.72;1.27;;;10.80;78.90;;;;;;5029534;28;20334;-69
2024/03/04 06:54:34;;;;;;;10.68;1.88;;;10.80;78.90;;;;;;5025683;28;20045;-69
2024/03/04 06:57:00;;;;;;;3.10;1.13;;;10.80;78.80;;;;;;5031939;28;20090;-69
2024/03/04 06:59:26;;;;;;;2.30;0.90;;;10.90;78.70;;;;;;5031558;28;20035;-69
2024/03/04 07:01:52;;;;;;;3.80;0.90;;;10.80;78.50;;;;;;5033868;28;20037;-69
2024/03/04 07:04:18;;;;;;;2.55;1.65;;;10.80;78.60;;;;;;5035762;28;20021;-69
2024/03/04 07:06:44;;;;;;;3.05;1.42;;;10.80;78.50;;;;;;5029908;28;20045;-69
2024/03/04 07:09:10;;;;;;;1.88;1.20;;;10.90;78.60;;;;;;5032532;28;20423;-69
2024/03/04 07:11:35;;;;;;;2.20;0.75;;;10.90;78.40;;;;;;5030129;28;20029;-69
2024/03/04 07:14:02;;;;;;;2.60;1.15;;;10.90;78.30;;;;;;5034964;28;20052;-69
2024/03/04 07:16:27;;;;;;;5.20;1.17;;;10.80;78.10;;;;;;5030265;28;20041;-69
2024/03/04 07:18:53;;;;;;;5.03;1.55;;;10.80;78.20;;;;;;5063369;28;20026;-69
2024/03/04 07:21:22;;;;;;;4.00;1.27;;;10.70;78.30;;;;;;5030918;28;20048;-69
2024/03/04 07:23:47;;;;;;;8.32;1.27;;;10.70;78.20;;;;;;5020560;28;20018;-68
2024/03/04 07:26:13;;;;;;;2.38;1.17;;;10.70;78.20;;;;;;5029359;28;20038;-69
2024/03/04 07:28:43;;;;;;;7.70;1.30;;;10.70;78.20;;;;;;5035693;28;20033;-69
2024/03/04 07:31:10;;;;;;;2.03;1.25;;;10.70;78.00;;;;;;5036862;28;20341;-69
2024/03/04 07:33:36;;;;;;;4.00;1.98;;;10.70;78.00;;;;;;5034790;28;20040;-68
2024/03/04 07:36:02;;;;;;;4.95;1.20;;;10.70;78.00;;;;;;5030612;28;20523;-67
2024/03/04 07:38:28;;;;;;;1.45;0.90;;;10.70;78.10;;;;;;5030914;28;20037;-67
2024/03/04 07:40:53;;;;;;;2.05;1.00;;;10.70;78.10;;;;;;5030954;28;20034;-68
2024/03/04 07:43:19;;;;;;;1.92;1.52;;;10.70;78.10;;;;;;5031531;28;20109;-68
2024/03/04 07:45:45;;;;;;;5.90;0.95;;;10.70;77.90;;;;;;5029615;28;20032;-68
2024/03/04 07:48:10;;;;;;;2.65;1.17;;;10.80;77.80;;;;;;5030694;28;20037;-68
2024/03/04 07:50:36;;;;;;;1.67;1.35;;;10.80;77.70;;;;;;5031200;28;20041;-68
2024/03/04 07:53:02;;;;;;;4.32;1.33;;;10.80;77.60;;;;;;5032409;28;20122;-67
2024/03/04 07:55:28;;;;;;;2.85;1.13;;;10.90;77.60;;;;;;5037521;28;20022;-68
2024/03/04 07:57:54;;;;;;;0.80;0.50;;;11.00;77.50;;;;;;5038404;28;20032;-68
2024/03/04 08:00:19;;;;;;;2.65;1.20;;;11.00;77.30;;;;;;5033540;28;20033;-66
2024/03/04 08:02:45;;;;;;;2.40;1.15;;;11.10;77.20;;;;;;5030318;28;20029;-66
2024/03/04 08:05:11;;;;;;;1.35;1.00;;;11.10;76.90;;;;;;5039386;28;20068;-67
2024/03/04 08:07:37;;;;;;;6.63;1.20;;;11.20;76.70;;;;;;5034261;28;20668;-67
2024/03/04 08:10:08;;;;;;;1.50;0.95;;;11.20;76.70;;;;;;5034980;28;20434;-67
2024/03/04 08:12:34;;;;;;;1.48;0.90;;;11.20;76.50;;;;;;5035206;28;20040;-66
2024/03/04 08:15:00;;;;;;;1.80;1.20;;;11.30;76.20;;;;;;5034468;28;20642;-67
2024/03/04 08:17:26;;;;;;;2.05;1.42;;;11.30;76.00;;;;;;5042062;28;20108;-65
2024/03/04 08:19:54;;;;;;;5.32;1.85;;;11.40;76.00;;;;;;5033059;28;20397;-68
2024/03/04 08:22:20;;;;;;;2.90;1.05;;;11.40;75.80;;;;;;5032364;28;20021;-68
2024/03/04 08:24:46;;;;;;;1.63;0.90;;;11.50;75.70;;;;;;5028789;28;20374;-68
2024/03/04 08:27:11;;;;;;;2.33;1.00;;;11.60;75.40;;;;;;5022466;28;20461;-68
2024/03/04 08:29:37;;;;;;;2.22;1.02;;;11.60;75.00;;;;;;5029769;28;20064;-68
2024/03/04 08:32:04;;;;;;;2.13;1.02;;;11.60;74.90;;;;;;5030833;28;20026;-68
2024/03/04 08:34:32;;;;;;;3.50;1.48;;;11.50;75.00;;;;;;5032266;28;20056;-68
2024/03/04 08:36:58;;;;;;;4.97;0.90;;;11.60;75.10;;;;;;5033319;28;20025;-68
2024/03/04 08:39:24;;;;;;;2.22;1.15;;;11.70;74.90;;;;;;5023769;28;20042;-68
2024/03/04 08:41:49;;;;;;;4.40;1.30;;;11.70;74.80;;;;;;5024783;28;20103;-68
2024/03/04 08:44:15;;;;;;;2.55;1.17;;;11.80;74.60;;;;;;5027397;28;20057;-68
2024/03/04 08:46:41;;;;;;;2.50;1.00;;;11.70;74.10;;;;;;5033763;28;20576;-68
2024/03/04 08:49:07;;;;;;;5.15;1.83;;;11.60;74.30;;;;;;5028718;28;20033;-68
2024/03/04 08:51:32;;;;;;;2.70;0.90;;;11.60;74.40;;;;;;5034450;28;20473;-68
2024/03/04 08:53:58;;;;;;;4.03;1.98;;;11.60;74.50;;;;;;5031580;28;20054;-68
2024/03/04 08:56:24;;;;;;;2.95;1.35;;;11.70;74.40;;;;;;5023971;28;20500;-68
2024/03/04 08:58:50;;;;;;;3.58;1.25;;;11.90;74.30;;;;;;5033923;28;20021;-68
2024/03/04 09:01:17;;;;;;;0.68;0.68;;;12.00;73.90;;;;;;5034385;28;20038;-68
2024/03/04 09:03:43;;;;;;;1.08;0.90;;;12.10;73.70;;;;;;5033303;28;20021;-68
2024/03/04 09:06:18;;;;;;;1.20;1.02;;;12.10;73.10;;;;;;5028887;28;20036;-68
2024/03/04 09:08:44;;;;;;;1.08;0.75;;;12.20;73.20;;;;;;5033210;28;20037;-68
2024/03/04 09:11:10;;;;;;;2.53;0.95;;;12.30;73.20;;;;;;5030822;28;20025;-68
2024/03/04 09:13:36;;;;;;;5.85;1.00;;;12.50;72.90;;;;;;5029342;28;20124;-68
2024/03/04 09:16:02;;;;;;;2.28;1.35;;;12.60;72.60;;;;;;5033830;28;20029;-68
2024/03/04 09:18:28;;;;;;;1.95;0.77;;;12.70;72.20;;;;;;5034678;28;20067;-68
2024/03/04 09:20:54;;;;;;;1.85;0.90;;;12.80;71.90;;;;;;5023995;28;20030;-68
2024/03/04 09:23:20;;;;;;;1.45;1.17;;;12.80;71.60;;;;;;5031709;28;20435;-68
2024/03/04 09:25:46;;;;;;;1.48;0.82;;;12.70;71.20;;;;;;5034994;28;20029;-68
2024/03/04 09:28:11;;;;;;;0.95;0.68;;;12.60;71.20;;;;;;5023859;28;20029;-66
2024/03/04 09:30:37;;;;;;;2.40;0.93;;;12.50;71.30;;;;;;5024533;28;20123;-66
2024/03/04 09:33:03;;;;;;;2.08;0.95;;;12.40;71.60;;;;;;5054723;28;20094;-66
2024/03/04 09:35:28;;;;;;;0.77;0.77;;;12.40;71.50;;;;;;5028201;28;20381;-69
2024/03/04 09:37:54;;;;;;;3.67;1.17;;;12.30;71.50;;;;;;5025125;28;20030;-69
2024/03/04 09:40:20;;;;;;;2.53;0.93;;;12.40;71.80;;;;;;5021903;28;20029;-69
2024/03/04 09:42:49;;;;;;;2.03;0.73;;;12.40;71.60;;;;;;5026564;28;20058;-69
2024/03/04 09:45:17;;;;;;;1.35;0.70;;;12.50;71.40;;;;;;5030425;28;20171;-69
2024/03/04 09:47:47;;;;;;;1.05;0.95;;;12.60;71.30;;;;;;5027575;28;20056;-68
2024/03/04 09:50:13;;;;;;;1.58;0.88;;;12.60;71.10;;;;;;5026819;28;20493;-68
2024/03/04 09:52:39;;;;;;;1.38;1.15;;;12.60;70.80;;;;;;5029834;28;20029;-68
2024/03/04 09:55:05;;;;;;;1.63;0.90;;;12.60;70.80;;;;;;5032942;28;20056;-68
2024/03/04 09:57:31;;;;;;;0.70;0.65;;;12.50;70.80;;;;;;5022900;28;20026;-68
2024/03/04 10:00:01;;;;;;;0.80;0.65;;;12.40;70.90;;;;;;5028759;28;20523;-66
2024/03/04 10:02:27;;;;;;;1.90;0.70;;;12.30;71.20;;;;;;5029107;28;20049;-66
2024/03/04 10:04:53;;;;;;;1.15;0.90;;;12.40;71.20;;;;;;5027012;28;20110;-67
2024/03/04 10:07:19;;;;;;;1.20;0.68;;;12.30;71.00;;;;;;5036341;28;20076;-67
2024/03/04 10:09:44;;;;;;;2.35;0.63;;;12.30;71.10;;;;;;5026349;28;20209;-66
2024/03/04 10:12:10;;;;;;;0.90;0.60;;;12.30;71.10;;;;;;5027973;28;20165;-66
2024/03/04 10:15:05;;;;;;;1.90;0.85;;;12.30;71.20;;;;;;5034438;28;20037;-66
2024/03/04 10:17:31;;;;;;;1.38;1.25;;;12.30;71.10;;;;;;5022968;28;20416;-66
2024/03/04 10:20:05;;;;;;;3.00;0.73;;;12.30;71.00;;;;;;5031205;28;20025;-66
2024/03/04 10:22:40;;;;;;;0.95;0.90;;;12.30;71.20;;;;;;5022863;28;20151;-66
2024/03/04 10:25:08;;;;;;;1.17;0.40;;;12.30;71.10;;;;;;5056952;28;20033;-67
2024/03/04 10:27:40;;;;;;;1.55;0.50;;;12.40;71.10;;;;;;5033833;28;20029;-66
2024/03/04 10:30:16;;;;;;;2.23;1.00;;;12.40;71.00;;;;;;5036393;28;20381;-66
2024/03/04 10:32:50;;;;;;;1.60;0.68;;;12.40;70.90;;;;;;5030031;28;20826;-66
2024/03/04 10:35:17;;;;;;;1.83;0.70;;;12.50;70.90;;;;;;5040877;28;20029;-66
2024/03/04 10:37:43;;;;;;;3.10;0.60;;;12.50;70.80;;;;;;5038321;28;20029;-66
2024/03/04 10:40:09;;;;;;;3.30;1.38;;;12.50;70.60;;;;;;5040984;28;20548;-67
2024/03/04 10:42:39;;;;;;;0.93;0.77;;;12.60;70.70;;;;;;5027625;28;20505;-66
2024/03/04 10:45:06;;;;;;;1.23;0.68;;;12.60;70.60;;;;;;5031614;28;20461;-66
2024/03/04 10:47:33;;;;;;;0.65;0.60;;;12.60;70.50;;;;;;5035613;28;20038;-66
2024/03/04 10:49:59;;;;;;;1.67;0.95;;;12.60;70.50;;;;;;5031884;28;20014;-67
2024/03/04 10:52:26;;;;;;;0.98;0.70;;;12.50;70.50;;;;;;5024016;28;20038;-66
2024/03/04 10:54:51;;;;;;;0.95;0.85;;;12.60;70.60;;;;;;5022394;28;20048;-66
2024/03/04 10:57:38;;;;;;;1.40;1.00;;;12.60;70.40;;;;;;5025211;28;20378;-66
2024/03/04 11:02:58;;;;;;;2.53;0.98;;;12.60;70.10;;;;;;5025444;28;20021;-66
2024/03/04 11:05:26;;;;;;;2.40;0.73;;;12.60;70.10;;;;;;5028706;28;20048;-67
2024/03/04 11:07:55;;;;;;;0.55;0.45;;;12.60;70.00;;;;;;5028059;28;20025;-67
2024/03/04 11:10:45;;;;;;;0.80;0.70;;;12.50;70.10;;;;;;5035628;28;20060;-66
2024/03/04 11:13:23;;;;;;;0.85;0.75;;;12.50;70.20;;;;;;5033317;28;20033;-66
2024/03/04 11:16:03;;;;;;;0.40;0.40;;;12.40;69.90;;;;;;5042972;28;20060;-66
2024/03/04 11:18:49;;;;;;;0.82;0.75;;;12.40;70.20;;;;;;5041389;28;20029;-66
2024/03/04 11:21:17;;;;;;;0.60;0.60;;;12.40;70.20;;;;;;5039507;28;20014;-66
2024/03/04 11:23:45;;;;;;;1.20;0.63;;;12.50;70.20;;;;;;5041251;28;21433;-66
2024/03/04 11:26:11;;;;;;;1.73;0.98;;;12.50;69.90;;;;;;5041606;28;20033;-66
2024/03/04 11:28:38;;;;;;;1.67;0.50;;;12.50;70.00;;;;;;5037534;28;20475;-66
2024/03/04 11:31:25;;;;;;;3.08;0.95;;;12.60;69.90;;;;;;5029309;28;20037;-66
2024/03/04 11:34:05;;;;;;;1.50;0.40;;;12.70;69.80;;;;;;5022752;28;20065;-66
2024/03/04 11:36:32;;;;;;;1.70;0.70;;;12.90;69.40;;;;;;5033605;28;20605;-67
2024/03/04 11:39:02;;;;;;;0.95;0.50;;;13.00;69.10;;;;;;5028168;28;20022;-66
2024/03/04 11:41:45;;;;;;;0.40;0.40;;;13.20;69.00;;;;;;5025934;28;20040;-66
2024/03/04 11:44:11;;;;;;;2.60;0.85;;;13.50;69.30;;;;;;5025412;28;20018;-66
2024/03/04 11:46:41;;;;;;;0.20;0.20;;;13.70;68.30;;;;;;5030852;28;20096;-66
2024/03/04 11:49:27;;;;;;;0.22;0.13;;;13.90;67.50;;;;;;5029633;28;20448;-66
2024/03/04 11:52:06;;;;;;;2.38;0.40;;;14.00;67.00;;;;;;5025012;28;20038;-62
2024/03/04 11:54:32;;;;;;;0.38;0.38;;;14.10;66.40;;;;;;5035909;28;20041;-61
2024/03/04 11:56:59;;;;;;;0.30;0.30;;;14.20;65.90;;;;;;5033962;28;20025;-61
2024/03/04 11:59:24;;;;;;;0.35;0.35;;;14.30;65.80;;;;;;5025920;28;20120;-62
2024/03/04 12:01:51;;;;;;;0.45;0.30;;;14.40;65.70;;;;;;5028638;28;20137;-62
2024/03/04 12:04:18;;;;;;;0.77;0.60;;;14.60;65.40;;;;;;5029216;28;20021;-68
2024/03/04 12:06:47;;;;;;;1.85;0.38;;;14.60;64.50;;;;;;5031475;28;20036;-68
2024/03/04 12:09:16;;;;;;;0.30;0.30;;;14.60;64.70;;;;;;5057831;28;20083;-68
2024/03/04 12:11:43;;;;;;;0.68;0.60;;;14.60;64.90;;;;;;5032752;28;20048;-68
2024/03/04 12:14:09;;;;;;;0.47;0.47;;;14.70;64.80;;;;;;5033757;28;20037;-68
2024/03/04 12:16:35;;;;;;;0.50;0.50;;;14.90;64.60;;;;;;5023501;28;20044;-68
2024/03/04 12:19:01;;;;;;;0.30;0.28;;;14.90;63.70;;;;;;5033230;28;20550;-68
2024/03/04 12:21:29;;;;;;;0.93;0.22;;;14.80;63.40;;;;;;5034873;28;20029;-62
2024/03/04 12:23:58;;;;;;;1.65;0.20;;;14.80;63.50;;;;;;5035200;28;20045;-63
2024/03/04 12:26:24;;;;;;;0.57;0.40;;;14.90;63.80;;;;;;5054826;28;20385;-62
2024/03/04 12:29:00;;;;;;;0.38;0.32;;;14.90;63.50;;;;;;5027691;28;20030;-68
2024/03/04 12:31:26;;;;;;;0.90;0.40;;;15.00;62.80;;;;;;5025417;28;20032;-68
2024/03/04 12:33:56;;;;;;;0.40;0.28;;;15.00;62.50;;;;;;5031711;28;20121;-68
2024/03/04 12:36:28;;;;;;;2.05;0.20;;;15.00;62.40;;;;;;5036840;28;20034;-68
2024/03/04 12:38:56;;;;;;;0.40;0.40;;;15.10;62.30;;;;;;5029811;28;20408;-68
2024/03/04 12:41:25;;;;;;;0.40;0.28;;;15.30;61.90;;;;;;5023758;28;20023;-68
2024/03/04 12:43:51;;;;;;;0.85;0.20;;;15.40;61.90;;;;;;5026051;28;20051;-68
2024/03/04 12:46:21;;;;;;;0.57;0.30;;;15.40;61.80;;;;;;5030008;28;20064;-63
2024/03/04 12:48:47;;;;;;;0.40;0.20;;;15.40;61.60;;;;;;5032261;28;20366;-63